Ann Arbor, MI

12:04 AM EDT on October 31, 2014 (GMT -0400)
Livingston County | Change Station
CLOSE
Current Station
Airport
Location: Howell,
Elevation: 961 ft
Nearby Weather Stations

Elev 961 ft 42.63 °N, 83.98 °W | Updated 9 minutes ago

Overcast
Overcast
44 °F
Feels Like 42 °F
N
4
Wind Variable Wind from SSW

Today
High -- | Low -- °F
--% Chance of Precip.
Yesterday
High -- | Low -- °F
Precip. -- in
8:07 AM 6:29 PM
Waxing Crescent, 51% visible
Pressure 29.99 in
Visibility 10.0 miles
Clouds Mostly Cloudy 3900 ft
Overcast 4600 ft
Windchill 42 °F
Dew Point 36 °F
Humidity 76%
Rainfall 0.00 in
Snow Depth Not available.
UV 0 out of 12
Pollen .10 out of 12
Air Quality Not available.
Flu Activity Not available.
METAR KOZW 310355Z AUTO 21003KT 10SM BKN039 OVC046 07/03 A2999 RMK AO2 T00650025

More Conditions Fewer Conditions

Pressure 29.99 in
Visibility 10.0 miles
Clouds Mostly Cloudy 3900 ft
Overcast 4600 ft
Windchill 42 °F
Dew Point 36 °F
Humidity 76%
Rainfall 0.00 in
Snow Depth Not available.
UV 0 out of 12
Pollen .10 out of 12
Air Quality Not available.
Flu Activity Not available.
METAR KOZW 310355Z AUTO 21003KT 10SM BKN039 OVC046 07/03 A2999 RMK AO2 T00650025

More Conditions Fewer Conditions

10-Day Weather Forecast

Almanac

Astronomy

Oct. 31, 2014 Rise Set
Actual Time
Civil Twilight
Nautical Twilight
Astronomical Twilight
Moon
Length of Visible Light
Length of Day
Tomorrow will be .
, % of the Moon is Illuminated

Today's Extremes

State Highs State Lows

Community

WunderPhotos

Upload Photos

1,766,563 photos uploaded!

WunderBlogs® & News

Nearby

Air Quality

  Air Quality AQ Index Pollutant
Not available.

Snow Depth

Station Depth Elevation

Earthquake Activity

City Distance Mag. Time & Date
Minimum magnitude displayed is 2.5.

Coastal Water Temperatures

Place Temperature

Nearby Weather Stations